• Join FlightAware (Why Join?)
  • Login
  • US Flag 
02:19AM EDT


 

Airport Tracker/Info


-or-


 

Live Flight TrackerFlight Track Log ✈ JZA8279 ✈ 05-Jul-2013 ✈ CYPR - CYVR

Flight Track Log - Related Links

Times and Time Zones

All times are in EDT time to prevent confusion due to time zone crossing. See the JZA8279 flight status page for this flight to view local times or setup timezone preferences in your user account.

Time Position Orientation Groundspeed Altitude Reporting Facility
EDT Latitude Longitude Course Direction KTS MPH feet Rate Location/Type
01:49PM 54.3000 -130.5167 136° Southeast 120 138 1,600  Level Vancouver Center
01:50PM 54.2667 -130.5500 210° Southwest 150 173 3,000 1,320 Climbing Vancouver Center
01:51PM 54.2333 -130.5333 164° South 160 184 4,300 1,260 Climbing Vancouver Center
01:52PM 54.2000 -130.4833 139° Southeast 170 196 5,600 1,200 Climbing Vancouver Center
01:53PM 54.1500 -130.4167 142° Southeast 190 219 6,700 1,200 Climbing Vancouver Center
01:54PM 53.9993 -129.9694 136° Southeast  Level Estimated
01:54PM 54.1167 -130.3500 130° Southeast 190 219 8,000  Level Vancouver Center
01:55PM 54.0833 -130.2833 130° Southeast 190 219 9,100 1,020 Climbing Vancouver Center
01:56PM 54.0500 -130.2333 139° Southeast 190 219 10,100 960 Climbing Vancouver Center
01:57PM 54.0000 -130.1333 130° Southeast 200 230 11,100 960 Climbing Vancouver Center
01:58PM 53.9667 -130.0667 130° Southeast 200 230 12,100 960 Climbing Vancouver Center
01:59PM 53.9167 -130.0000 142° Southeast 210 242 13,100 1,080 Climbing Vancouver Center
02:00PM 53.9000 -129.9500 119° Southeast 210 242 14,300 1,080 Climbing Vancouver Center
02:01PM 53.8500 -129.8500 130° Southeast 210 242 15,300 900 Climbing Vancouver Center
02:02PM 53.8000 -129.7833 142° Southeast 220 253 16,100 900 Climbing Vancouver Center
02:03PM 53.7500 -129.7000 135° Southeast 230 265 17,200 840 Climbing Vancouver Center
02:04PM 53.7000 -129.6333 142° Southeast 230 265 17,800 660 Climbing Vancouver Center
02:05PM 53.6667 -129.5500 124° Southeast 240 276 18,600 780 Climbing Vancouver Center
02:06PM 53.6167 -129.4833 142° Southeast 240 276 19,400 720 Climbing Vancouver Center
02:07PM 53.5667 -129.4000 135° Southeast 240 276 20,100 660 Climbing Vancouver Center
02:08PM 53.5167 -129.3000 130° Southeast 250 288 20,800 420 Climbing Vancouver Center
02:09PM 53.4667 -129.2333 142° Southeast 260 299 21,000 60 Climbing Vancouver Center
02:10PM 53.4167 -129.1167 126° Southeast 290 334 21,000  Level Vancouver Center
02:11PM 53.3500 -129.0333 143° Southeast 300 345 21,000  Level Vancouver Center
02:12PM 53.2833 -128.9333 138° Southeast 310 357 21,000  Level Vancouver Center
02:13PM 53.2333 -128.8500 135° Southeast 300 345 21,000  Level Vancouver Center
02:14PM 53.1833 -128.7333 126° Southeast 300 345 21,000  Level Vancouver Center
02:15PM 53.1167 -128.6333 138° Southeast 300 345 21,000  Level Vancouver Center
02:16PM 53.0500 -128.5167 134° Southeast 300 345 21,000  Level Vancouver Center
02:17PM 53.0000 -128.4333 135° Southeast 300 345 21,000  Level Vancouver Center
02:18PM 52.9500 -128.3500 135° Southeast 310 357 21,000  Level Vancouver Center
02:19PM 52.8833 -128.2500 138° Southeast 300 345 21,000  Level Vancouver Center
02:20PM 52.8167 -128.1333 133° Southeast 300 345 21,000  Level Vancouver Center
02:21PM 52.7500 -128.0500 143° Southeast 300 345 21,000  Level Vancouver Center
02:22PM 52.6833 -127.9500 138° Southeast 300 345 21,000  Level Vancouver Center
02:23PM 52.6333 -127.8333 125° Southeast 300 345 21,000  Level Vancouver Center
02:24PM 52.5833 -127.7833 149° Southeast 300 345 21,000  Level Vancouver Center
02:25PM 52.5167 -127.6667 133° Southeast 300 345 21,000  Level Vancouver Center
02:26PM 52.4500 -127.5833 143° Southeast 300 345 21,000  Level Vancouver Center
02:27PM 52.4000 -127.5000 135° Southeast 300 345 21,000  Level Vancouver Center
02:28PM 52.3333 -127.3833 133° Southeast 300 345 21,000  Level Vancouver Center
02:29PM 52.2833 -127.2833 129° Southeast 300 345 21,000  Level Vancouver Center
02:30PM 52.2167 -127.2000 143° Southeast 300 345 21,000  Level Vancouver Center
02:31PM 52.1500 -127.1167 142° Southeast 300 345 21,000  Level Vancouver Center
02:32PM 52.1000 -127.0000 125° Southeast 300 345 21,000  Level Vancouver Center
02:33PM 52.0333 -126.9167 142° Southeast 300 345 21,000  Level Vancouver Center
02:34PM 51.9667 -126.8333 142° Southeast 300 345 21,000  Level Vancouver Center
02:35PM 51.9000 -126.7500 142° Southeast 300 345 21,000  Level Vancouver Center
02:36PM 51.8667 -126.6333 115° Southeast 290 334 21,000  Level Vancouver Center
02:37PM 51.8000 -126.5500 142° Southeast 290 334 21,000  Level Vancouver Center
02:38PM 51.7333 -126.4667 142° Southeast 290 334 21,000  Level Vancouver Center
02:39PM 51.6833 -126.3833 134° Southeast 290 334 21,000  Level Vancouver Center
02:40PM 51.6167 -126.3000 142° Southeast 290 334 21,000  Level Vancouver Center
02:41PM 51.5500 -126.2167 142° Southeast 290 334 21,000  Level Vancouver Center
02:42PM 51.4833 -126.1000 133° Southeast 290 334 21,000  Level Vancouver Center
02:43PM 51.4333 -126.0167 134° Southeast 290 334 21,000  Level Vancouver Center
02:44PM 51.3667 -125.9333 142° Southeast 290 334 21,000  Level Vancouver Center
02:45PM 51.3000 -125.8500 142° Southeast 290 334 21,000  Level Vancouver Center
02:46PM 51.2667 -125.7500 118° Southeast 290 334 21,000  Level Vancouver Center
02:47PM 51.2000 -125.6667 142° Southeast 290 334 21,000  Level Vancouver Center
02:48PM 51.1500 -125.5833 134° Southeast 290 334 21,000  Level Vancouver Center
02:49PM 51.0833 -125.5000 142° Southeast 290 334 21,000  Level Vancouver Center
02:50PM 51.0167 -125.4167 142° Southeast 290 334 21,000  Level Vancouver Center
02:51PM 50.9667 -125.3333 134° Southeast 290 334 21,000  Level Vancouver Center
02:52PM 50.9000 -125.2500 142° Southeast 290 334 21,000  Level Vancouver Center
02:53PM 50.8333 -125.1500 137° Southeast 290 334 21,000  Level Vancouver Center
02:54PM 50.7833 -125.0667 133° Southeast 290 334 21,000  Level Vancouver Center
02:55PM 50.7167 -124.9833 142° Southeast 290 334 21,000  Level Vancouver Center
02:56PM 50.6500 -124.9000 142° Southeast 290 334 21,000  Level Vancouver Center
02:57PM 50.6000 -124.8167 133° Southeast 290 334 21,000  Level Vancouver Center
02:58PM 50.5333 -124.7500 148° Southeast 290 334 21,000  Level Vancouver Center
02:59PM 50.4667 -124.6333 132° Southeast 290 334 21,000  Level Vancouver Center
03:00PM 50.4000 -124.5500 141° Southeast 290 334 21,000  Level Vancouver Center
03:01PM 50.3500 -124.4833 140° Southeast 290 334 21,000  Level Vancouver Center
03:02PM 50.2833 -124.4000 141° Southeast 290 334 21,000  Level Vancouver Center
03:03PM 50.2167 -124.3167 141° Southeast 290 334 21,000 -180 Level Vancouver Center
03:04PM 50.1667 -124.2167 128° Southeast 290 334 20,700 -480 Descending Vancouver Center
03:05PM 50.1000 -124.1333 141° Southeast 300 345 20,100 -1,020 Descending Vancouver Center
03:06PM 50.0333 -124.0667 147° Southeast 320 368 18,700 -1,500 Descending Vancouver Center
03:07PM 49.9667 -123.9500 132° Southeast 330 380 17,100 -1,740 Descending Vancouver Center
03:08PM 49.9000 -123.8833 147° Southeast 320 368 15,300 -1,500 Descending Vancouver Center
03:09PM 49.8333 -123.7667 132° Southeast 310 357 14,200 -900 Descending Vancouver Center
03:10PM 49.7667 -123.7000 147° Southeast 310 357 13,600 -300 Descending Vancouver Center
03:11PM 49.6833 -123.6500 159° South 300 345 13,600 -60 Level Vancouver Center
03:12PM 49.6167 -123.6000 154° Southeast 290 334 13,500 -420 Descending Vancouver Center
03:13PM 49.5333 -123.5500 159° South 290 334 12,800 -720 Descending Vancouver Center
03:14PM 49.4667 -123.4667 141° Southeast 300 345 12,100 -1,020 Descending Vancouver Center
03:15PM 49.4000 -123.4167 154° Southeast 300 345 10,800 -1,440 Descending Vancouver Center
03:16PM 49.3333 -123.3667 154° Southeast 290 334 9,300 -1,740 Descending Vancouver Center
03:17PM 49.2667 -123.2833 141° Southeast 260 299 7,400 -1,740 Descending Vancouver Center
03:18PM 49.2500 -123.1833 104° East 250 288 5,900 -1,200 Descending Vancouver Center
03:19PM 49.2500 -123.1167 90° East 230 265 5,000 -480 Descending Vancouver Center
03:20PM 49.2333 -123.0000 102° East 230 265 5,000 -60 Level Vancouver Center
03:21PM 49.2167 -122.9000 104° East 210 242 4,900 -540 Descending Vancouver Center
03:22PM 49.2000 -122.8500 117° Southeast 200 230 4,000 -900 Descending Vancouver Center
03:23PM 49.1500 -122.8833 204° Southwest 190 219 3,200 -720 Descending Vancouver Center
03:24PM 49.1667 -122.9500 291° West 190 219 2,600 -780 Descending Vancouver Center
03:25PM 49.1667 -123.0333 270° West 180 207 1,700 -900 Descending Vancouver Center
03:26PM 49.1667 -123.0833 270° West 160 184 900 -720 Descending Vancouver Center
03:27PM 49.1833 -123.1333 297° West 110 127 300 -600 Descending Vancouver Center